Terminal Aerodrome Forecast
Issued by NWS

Home | Current Version | Previous Version | Text Only | Print | Product List | Glossary On
Versions: 1 2 3 4 5 6 7 8 9 10 11 12 13 14 15 16 17 18 19 20 21 22 23 24 25 26 27 28 29 30 31 32 33 34 35 36 37 38 39 40 41
000
FTAK31 PANC 011739
TAFADU
TAF
PADU 011739Z 0118/0218 08012G22KT P6SM BKN035 OVC045
      TEMPO 0118/0120 08012KT
     FM020000 05018G30KT P6SM VCSH BKN025 OVC035
     FM020600 05022G35KT 6SM -RA BKN015 OVC025=

USA.gov is the U.S. government's official web portal to all federal, state and local government web resources and services.